sensor_id;sensor_type;location;lat;lon;timestamp;P1;durP1;ratioP1;P2;durP2;ratioP2
36989;SDS011;22898;52.102;5.776;2023-04-15T00:00:08;1.83;;;1.42;;
36989;SDS011;22898;52.102;5.776;2023-04-15T00:02:34;0.98;;;0.82;;
36989;SDS011;22898;52.102;5.776;2023-04-15T00:05:01;1.00;;;0.95;;
36989;SDS011;22898;52.102;5.776;2023-04-15T00:07:26;1.60;;;1.00;;
36989;SDS011;22898;52.102;5.776;2023-04-15T00:09:53;1.40;;;1.30;;
36989;SDS011;22898;52.102;5.776;2023-04-15T00:12:21;0.80;;;0.80;;
36989;SDS011;22898;52.102;5.776;2023-04-15T00:14:47;1.40;;;1.30;;
36989;SDS011;22898;52.102;5.776;2023-04-15T00:17:14;1.02;;;0.85;;
36989;SDS011;22898;52.102;5.776;2023-04-15T00:19:39;1.02;;;0.90;;
36989;SDS011;22898;52.102;5.776;2023-04-15T00:22:05;2.10;;;1.45;;
36989;SDS011;22898;52.102;5.776;2023-04-15T00:24:32;1.30;;;1.20;;
36989;SDS011;22898;52.102;5.776;2023-04-15T00:26:58;1.38;;;1.23;;
36989;SDS011;22898;52.102;5.776;2023-04-15T00:29:24;0.90;;;0.90;;
36989;SDS011;22898;52.102;5.776;2023-04-15T00:31:51;13.00;;;1.38;;
36989;SDS011;22898;52.102;5.776;2023-04-15T00:34:17;0.75;;;0.75;;
36989;SDS011;22898;52.102;5.776;2023-04-15T00:36:43;1.45;;;1.35;;
36989;SDS011;22898;52.102;5.776;2023-04-15T00:39:08;2.08;;;1.63;;
36989;SDS011;22898;52.102;5.776;2023-04-15T00:41:34;2.88;;;1.30;;
36989;SDS011;22898;52.102;5.776;2023-04-15T00:44:03;1.42;;;1.33;;
36989;SDS011;22898;52.102;5.776;2023-04-15T00:46:32;1.30;;;0.95;;
36989;SDS011;22898;52.102;5.776;2023-04-15T00:49:01;5.45;;;1.50;;
36989;SDS011;22898;52.102;5.776;2023-04-15T00:51:28;1.55;;;1.45;;
36989;SDS011;22898;52.102;5.776;2023-04-15T00:53:55;3.42;;;1.88;;
36989;SDS011;22898;52.102;5.776;2023-04-15T00:56:21;1.45;;;1.35;;
36989;SDS011;22898;52.102;5.776;2023-04-15T00:58:48;15.35;;;1.45;;
36989;SDS011;22898;52.102;5.776;2023-04-15T01:01:15;2.40;;;1.20;;
36989;SDS011;22898;52.102;5.776;2023-04-15T01:03:45;3.42;;;1.85;;
36989;SDS011;22898;52.102;5.776;2023-04-15T01:06:11;1.77;;;1.10;;
36989;SDS011;22898;52.102;5.776;2023-04-15T01:08:38;2.78;;;1.60;;
36989;SDS011;22898;52.102;5.776;2023-04-15T01:11:03;1.33;;;1.23;;
36989;SDS011;22898;52.102;5.776;2023-04-15T01:13:29;1.55;;;1.42;;
36989;SDS011;22898;52.102;5.776;2023-04-15T01:15:57;1.58;;;1.30;;
36989;SDS011;22898;52.102;5.776;2023-04-15T01:18:23;0.98;;;0.93;;
36989;SDS011;22898;52.102;5.776;2023-04-15T01:20:49;1.10;;;1.05;;
36989;SDS011;22898;52.102;5.776;2023-04-15T01:23:15;1.15;;;1.05;;
36989;SDS011;22898;52.102;5.776;2023-04-15T01:25:41;1.00;;;0.90;;
36989;SDS011;22898;52.102;5.776;2023-04-15T01:28:08;0.77;;;0.77;;
36989;SDS011;22898;52.102;5.776;2023-04-15T01:30:34;0.68;;;0.68;;
36989;SDS011;22898;52.102;5.776;2023-04-15T01:33:00;1.20;;;1.08;;
36989;SDS011;22898;52.102;5.776;2023-04-15T01:35:26;1.58;;;1.45;;
36989;SDS011;22898;52.102;5.776;2023-04-15T01:37:53;1.02;;;0.93;;
36989;SDS011;22898;52.102;5.776;2023-04-15T01:40:21;1.65;;;1.10;;
36989;SDS011;22898;52.102;5.776;2023-04-15T01:42:47;1.67;;;1.58;;
36989;SDS011;22898;52.102;5.776;2023-04-15T01:45:12;1.10;;;0.75;;
36989;SDS011;22898;52.102;5.776;2023-04-15T01:47:38;1.15;;;1.05;;
36989;SDS011;22898;52.102;5.776;2023-04-15T01:50:04;1.38;;;1.15;;
36989;SDS011;22898;52.102;5.776;2023-04-15T01:52:30;1.52;;;1.42;;
36989;SDS011;22898;52.102;5.776;2023-04-15T01:54:56;2.33;;;1.52;;
36989;SDS011;22898;52.102;5.776;2023-04-15T01:57:21;1.23;;;1.13;;
36989;SDS011;22898;52.102;5.776;2023-04-15T01:59:47;1.30;;;1.20;;
36989;SDS011;22898;52.102;5.776;2023-04-15T02:02:12;5.68;;;1.27;;
36989;SDS011;22898;52.102;5.776;2023-04-15T02:04:39;1.35;;;1.17;;
36989;SDS011;22898;52.102;5.776;2023-04-15T02:07:04;1.33;;;1.23;;
36989;SDS011;22898;52.102;5.776;2023-04-15T02:09:31;1.80;;;1.30;;
36989;SDS011;22898;52.102;5.776;2023-04-15T02:11:56;1.23;;;1.10;;
36989;SDS011;22898;52.102;5.776;2023-04-15T02:14:22;0.80;;;0.80;;
36989;SDS011;22898;52.102;5.776;2023-04-15T02:16:47;1.67;;;1.58;;
36989;SDS011;22898;52.102;5.776;2023-04-15T02:19:13;2.22;;;1.33;;
36989;SDS011;22898;52.102;5.776;2023-04-15T02:21:39;1.83;;;1.60;;
36989;SDS011;22898;52.102;5.776;2023-04-15T02:24:05;1.85;;;1.70;;
36989;SDS011;22898;52.102;5.776;2023-04-15T02:26:31;1.92;;;1.30;;
36989;SDS011;22898;52.102;5.776;2023-04-15T02:28:57;0.90;;;0.90;;
36989;SDS011;22898;52.102;5.776;2023-04-15T02:31:23;1.10;;;1.00;;
36989;SDS011;22898;52.102;5.776;2023-04-15T02:33:49;1.98;;;1.52;;
36989;SDS011;22898;52.102;5.776;2023-04-15T02:36:15;3.67;;;1.60;;
36989;SDS011;22898;52.102;5.776;2023-04-15T02:38:40;0.80;;;0.80;;
36989;SDS011;22898;52.102;5.776;2023-04-15T02:41:07;1.17;;;1.08;;
36989;SDS011;22898;52.102;5.776;2023-04-15T02:43:34;2.03;;;1.38;;
36989;SDS011;22898;52.102;5.776;2023-04-15T02:46:00;1.67;;;1.58;;
36989;SDS011;22898;52.102;5.776;2023-04-15T02:48:25;1.75;;;1.58;;
36989;SDS011;22898;52.102;5.776;2023-04-15T02:50:51;1.25;;;1.15;;
36989;SDS011;22898;52.102;5.776;2023-04-15T02:53:16;1.20;;;1.13;;
36989;SDS011;22898;52.102;5.776;2023-04-15T02:55:43;1.17;;;1.10;;
36989;SDS011;22898;52.102;5.776;2023-04-15T02:58:10;1.88;;;1.08;;
36989;SDS011;22898;52.102;5.776;2023-04-15T03:00:35;5.45;;;2.90;;
36989;SDS011;22898;52.102;5.776;2023-04-15T03:03:01;2.60;;;1.60;;
36989;SDS011;22898;52.102;5.776;2023-04-15T03:05:28;0.80;;;0.80;;
36989;SDS011;22898;52.102;5.776;2023-04-15T03:07:54;2.28;;;1.75;;
36989;SDS011;22898;52.102;5.776;2023-04-15T03:10:19;1.13;;;1.00;;
36989;SDS011;22898;52.102;5.776;2023-04-15T03:12:45;2.20;;;1.60;;
36989;SDS011;22898;52.102;5.776;2023-04-15T03:15:11;1.30;;;1.20;;
36989;SDS011;22898;52.102;5.776;2023-04-15T03:17:37;1.45;;;1.33;;
36989;SDS011;22898;52.102;5.776;2023-04-15T03:20:03;2.15;;;1.65;;
36989;SDS011;22898;52.102;5.776;2023-04-15T03:22:30;2.22;;;1.40;;
36989;SDS011;22898;52.102;5.776;2023-04-15T03:24:56;2.60;;;2.40;;
36989;SDS011;22898;52.102;5.776;2023-04-15T03:27:22;1.83;;;1.73;;
36989;SDS011;22898;52.102;5.776;2023-04-15T03:29:47;1.23;;;1.13;;
36989;SDS011;22898;52.102;5.776;2023-04-15T03:32:13;0.98;;;0.93;;
36989;SDS011;22898;52.102;5.776;2023-04-15T03:34:39;1.77;;;1.65;;
36989;SDS011;22898;52.102;5.776;2023-04-15T03:37:06;1.45;;;1.25;;
36989;SDS011;22898;52.102;5.776;2023-04-15T03:39:31;1.38;;;1.27;;
36989;SDS011;22898;52.102;5.776;2023-04-15T03:41:57;1.25;;;1.15;;
36989;SDS011;22898;52.102;5.776;2023-04-15T03:44:23;2.28;;;1.63;;
36989;SDS011;22898;52.102;5.776;2023-04-15T03:46:51;1.77;;;1.65;;
36989;SDS011;22898;52.102;5.776;2023-04-15T03:49:16;1.65;;;1.38;;
36989;SDS011;22898;52.102;5.776;2023-04-15T03:51:43;1.75;;;1.55;;
36989;SDS011;22898;52.102;5.776;2023-04-15T03:54:09;6.60;;;2.97;;
36989;SDS011;22898;52.102;5.776;2023-04-15T03:56:35;0.68;;;0.68;;
36989;SDS011;22898;52.102;5.776;2023-04-15T03:59:01;2.60;;;1.27;;
36989;SDS011;22898;52.102;5.776;2023-04-15T04:01:26;1.35;;;1.17;;
36989;SDS011;22898;52.102;5.776;2023-04-15T04:03:52;1.00;;;1.00;;
36989;SDS011;22898;52.102;5.776;2023-04-15T04:06:17;1.33;;;1.23;;
36989;SDS011;22898;52.102;5.776;2023-04-15T04:08:43;2.97;;;2.08;;
36989;SDS011;22898;52.102;5.776;2023-04-15T04:11:09;3.75;;;1.33;;
36989;SDS011;22898;52.102;5.776;2023-04-15T04:13:34;2.60;;;2.08;;
36989;SDS011;22898;52.102;5.776;2023-04-15T04:16:00;1.95;;;1.63;;
36989;SDS011;22898;52.102;5.776;2023-04-15T04:18:26;3.35;;;2.22;;
36989;SDS011;22898;52.102;5.776;2023-04-15T04:20:52;0.80;;;0.80;;
36989;SDS011;22898;52.102;5.776;2023-04-15T04:23:17;2.50;;;1.23;;
36989;SDS011;22898;52.102;5.776;2023-04-15T04:25:43;1.48;;;0.60;;
36989;SDS011;22898;52.102;5.776;2023-04-15T04:28:08;1.80;;;1.40;;
36989;SDS011;22898;52.102;5.776;2023-04-15T04:30:35;1.85;;;1.38;;
36989;SDS011;22898;52.102;5.776;2023-04-15T04:33:01;2.15;;;1.70;;
36989;SDS011;22898;52.102;5.776;2023-04-15T04:35:26;2.47;;;1.65;;
36989;SDS011;22898;52.102;5.776;2023-04-15T04:37:52;6.72;;;1.50;;
36989;SDS011;22898;52.102;5.776;2023-04-15T04:40:17;10.32;;;1.98;;
36989;SDS011;22898;52.102;5.776;2023-04-15T04:42:43;1.98;;;1.83;;
36989;SDS011;22898;52.102;5.776;2023-04-15T04:45:09;3.67;;;2.05;;
36989;SDS011;22898;52.102;5.776;2023-04-15T04:47:35;1.52;;;1.38;;
36989;SDS011;22898;52.102;5.776;2023-04-15T04:50:00;8.30;;;2.22;;
36989;SDS011;22898;52.102;5.776;2023-04-15T04:52:26;3.38;;;1.30;;
36989;SDS011;22898;52.102;5.776;2023-04-15T04:54:51;1.25;;;1.15;;
36989;SDS011;22898;52.102;5.776;2023-04-15T04:57:17;3.03;;;1.60;;
36989;SDS011;22898;52.102;5.776;2023-04-15T04:59:43;1.15;;;1.15;;
36989;SDS011;22898;52.102;5.776;2023-04-15T05:02:08;2.97;;;1.73;;
36989;SDS011;22898;52.102;5.776;2023-04-15T05:04:34;1.33;;;1.23;;
36989;SDS011;22898;52.102;5.776;2023-04-15T05:07:01;1.15;;;1.08;;
36989;SDS011;22898;52.102;5.776;2023-04-15T05:09:26;1.10;;;1.02;;
36989;SDS011;22898;52.102;5.776;2023-04-15T05:11:52;1.48;;;1.15;;
36989;SDS011;22898;52.102;5.776;2023-04-15T05:14:17;10.20;;;1.45;;
36989;SDS011;22898;52.102;5.776;2023-04-15T05:16:43;2.20;;;2.00;;
36989;SDS011;22898;52.102;5.776;2023-04-15T05:19:09;2.40;;;2.20;;
36989;SDS011;22898;52.102;5.776;2023-04-15T05:21:34;7.88;;;2.38;;
36989;SDS011;22898;52.102;5.776;2023-04-15T05:24:00;1.67;;;1.58;;
36989;SDS011;22898;52.102;5.776;2023-04-15T05:26:25;2.50;;;2.28;;
36989;SDS011;22898;52.102;5.776;2023-04-15T05:28:51;1.17;;;1.13;;
36989;SDS011;22898;52.102;5.776;2023-04-15T05:31:17;2.05;;;1.80;;
36989;SDS011;22898;52.102;5.776;2023-04-15T05:33:42;3.00;;;2.70;;
36989;SDS011;22898;52.102;5.776;2023-04-15T05:36:08;2.75;;;1.85;;
36989;SDS011;22898;52.102;5.776;2023-04-15T05:38:33;7.30;;;1.42;;
36989;SDS011;22898;52.102;5.776;2023-04-15T05:40:59;2.00;;;1.83;;
36989;SDS011;22898;52.102;5.776;2023-04-15T05:43:25;2.75;;;2.20;;
36989;SDS011;22898;52.102;5.776;2023-04-15T05:45:51;2.40;;;2.20;;
36989;SDS011;22898;52.102;5.776;2023-04-15T05:48:17;3.70;;;2.35;;
36989;SDS011;22898;52.102;5.776;2023-04-15T05:50:42;3.55;;;2.75;;
36989;SDS011;22898;52.102;5.776;2023-04-15T05:53:08;3.42;;;1.67;;
36989;SDS011;22898;52.102;5.776;2023-04-15T05:55:33;2.03;;;1.65;;
36989;SDS011;22898;52.102;5.776;2023-04-15T05:57:59;2.10;;;1.70;;
36989;SDS011;22898;52.102;5.776;2023-04-15T06:00:25;1.98;;;1.60;;
36989;SDS011;22898;52.102;5.776;2023-04-15T06:02:51;1.98;;;1.35;;
36989;SDS011;22898;52.102;5.776;2023-04-15T06:05:17;3.80;;;2.25;;
36989;SDS011;22898;52.102;5.776;2023-04-15T06:07:43;3.25;;;1.80;;
36989;SDS011;22898;52.102;5.776;2023-04-15T06:10:08;1.70;;;1.50;;
36989;SDS011;22898;52.102;5.776;2023-04-15T06:12:34;2.10;;;1.75;;
36989;SDS011;22898;52.102;5.776;2023-04-15T06:15:00;7.97;;;1.63;;
36989;SDS011;22898;52.102;5.776;2023-04-15T06:17:26;2.72;;;2.15;;
36989;SDS011;22898;52.102;5.776;2023-04-15T06:19:51;3.50;;;2.80;;
36989;SDS011;22898;52.102;5.776;2023-04-15T06:22:20;4.13;;;1.65;;
36989;SDS011;22898;52.102;5.776;2023-04-15T06:24:47;2.75;;;2.15;;
36989;SDS011;22898;52.102;5.776;2023-04-15T06:27:14;1.52;;;1.42;;
36989;SDS011;22898;52.102;5.776;2023-04-15T06:29:40;3.55;;;2.58;;
36989;SDS011;22898;52.102;5.776;2023-04-15T06:32:06;2.55;;;2.03;;
36989;SDS011;22898;52.102;5.776;2023-04-15T06:34:31;2.38;;;2.15;;
36989;SDS011;22898;52.102;5.776;2023-04-15T06:36:57;5.45;;;2.67;;
36989;SDS011;22898;52.102;5.776;2023-04-15T06:39:22;4.22;;;2.15;;
36989;SDS011;22898;52.102;5.776;2023-04-15T06:41:48;2.35;;;2.00;;
36989;SDS011;22898;52.102;5.776;2023-04-15T06:44:14;2.60;;;2.22;;
36989;SDS011;22898;52.102;5.776;2023-04-15T06:46:40;4.78;;;2.65;;
36989;SDS011;22898;52.102;5.776;2023-04-15T06:49:05;4.20;;;2.47;;
36989;SDS011;22898;52.102;5.776;2023-04-15T06:51:31;1.98;;;1.75;;
36989;SDS011;22898;52.102;5.776;2023-04-15T06:53:58;4.70;;;2.95;;
36989;SDS011;22898;52.102;5.776;2023-04-15T06:56:23;3.30;;;2.58;;
36989;SDS011;22898;52.102;5.776;2023-04-15T06:58:49;3.20;;;2.08;;
36989;SDS011;22898;52.102;5.776;2023-04-15T07:01:15;2.85;;;2.00;;
36989;SDS011;22898;52.102;5.776;2023-04-15T07:03:40;4.05;;;2.17;;
36989;SDS011;22898;52.102;5.776;2023-04-15T07:06:06;12.20;;;3.85;;
36989;SDS011;22898;52.102;5.776;2023-04-15T07:08:33;2.90;;;1.73;;
36989;SDS011;22898;52.102;5.776;2023-04-15T07:10:59;3.75;;;2.42;;
36989;SDS011;22898;52.102;5.776;2023-04-15T07:13:25;3.22;;;2.55;;
36989;SDS011;22898;52.102;5.776;2023-04-15T07:15:51;1.35;;;1.25;;
36989;SDS011;22898;52.102;5.776;2023-04-15T07:18:16;5.05;;;2.55;;
36989;SDS011;22898;52.102;5.776;2023-04-15T07:20:42;2.53;;;1.90;;
36989;SDS011;22898;52.102;5.776;2023-04-15T07:23:08;2.38;;;1.98;;
36989;SDS011;22898;52.102;5.776;2023-04-15T07:25:33;5.55;;;3.17;;
36989;SDS011;22898;52.102;5.776;2023-04-15T07:28:01;4.05;;;3.08;;
36989;SDS011;22898;52.102;5.776;2023-04-15T07:30:27;4.70;;;3.08;;
36989;SDS011;22898;52.102;5.776;2023-04-15T07:32:53;2.65;;;1.83;;
36989;SDS011;22898;52.102;5.776;2023-04-15T07:35:19;5.55;;;2.72;;
36989;SDS011;22898;52.102;5.776;2023-04-15T07:37:45;2.72;;;2.00;;
36989;SDS011;22898;52.102;5.776;2023-04-15T07:40:11;2.03;;;1.67;;
36989;SDS011;22898;52.102;5.776;2023-04-15T07:42:38;3.72;;;3.05;;
36989;SDS011;22898;52.102;5.776;2023-04-15T07:45:04;4.40;;;2.30;;
36989;SDS011;22898;52.102;5.776;2023-04-15T07:47:30;2.55;;;2.13;;
36989;SDS011;22898;52.102;5.776;2023-04-15T07:49:56;3.28;;;1.90;;
36989;SDS011;22898;52.102;5.776;2023-04-15T07:52:21;1.80;;;1.52;;
36989;SDS011;22898;52.102;5.776;2023-04-15T07:54:47;3.35;;;2.05;;
36989;SDS011;22898;52.102;5.776;2023-04-15T07:57:12;6.38;;;2.20;;
36989;SDS011;22898;52.102;5.776;2023-04-15T07:59:38;1.30;;;1.20;;
36989;SDS011;22898;52.102;5.776;2023-04-15T08:02:04;2.42;;;1.80;;
36989;SDS011;22898;52.102;5.776;2023-04-15T08:04:29;1.90;;;1.60;;
36989;SDS011;22898;52.102;5.776;2023-04-15T08:06:55;3.65;;;2.10;;
36989;SDS011;22898;52.102;5.776;2023-04-15T08:09:20;2.38;;;1.50;;
36989;SDS011;22898;52.102;5.776;2023-04-15T08:11:47;4.80;;;2.47;;
36989;SDS011;22898;52.102;5.776;2023-04-15T08:14:14;2.05;;;1.48;;
36989;SDS011;22898;52.102;5.776;2023-04-15T08:16:39;1.40;;;1.30;;
36989;SDS011;22898;52.102;5.776;2023-04-15T08:19:05;2.80;;;2.38;;
36989;SDS011;22898;52.102;5.776;2023-04-15T08:21:31;2.58;;;1.73;;
36989;SDS011;22898;52.102;5.776;2023-04-15T08:23:56;3.05;;;1.48;;
36989;SDS011;22898;52.102;5.776;2023-04-15T08:26:22;2.65;;;2.13;;
36989;SDS011;22898;52.102;5.776;2023-04-15T08:28:48;0.80;;;0.80;;
36989;SDS011;22898;52.102;5.776;2023-04-15T08:31:14;1.00;;;1.00;;
36989;SDS011;22898;52.102;5.776;2023-04-15T08:33:41;1.52;;;1.42;;
36989;SDS011;22898;52.102;5.776;2023-04-15T08:36:06;1.10;;;1.02;;
36989;SDS011;22898;52.102;5.776;2023-04-15T08:38:32;2.00;;;1.65;;
36989;SDS011;22898;52.102;5.776;2023-04-15T08:40:59;0.88;;;0.88;;
36989;SDS011;22898;52.102;5.776;2023-04-15T08:43:30;1.83;;;0.98;;
36989;SDS011;22898;52.102;5.776;2023-04-15T08:45:59;1.38;;;1.27;;
36989;SDS011;22898;52.102;5.776;2023-04-15T08:48:30;4.50;;;1.55;;
36989;SDS011;22898;52.102;5.776;2023-04-15T08:50:57;1.75;;;1.05;;
36989;SDS011;22898;52.102;5.776;2023-04-15T08:53:23;1.27;;;0.90;;
36989;SDS011;22898;52.102;5.776;2023-04-15T08:55:51;1.13;;;1.05;;
36989;SDS011;22898;52.102;5.776;2023-04-15T08:58:21;0.98;;;0.98;;
36989;SDS011;22898;52.102;5.776;2023-04-15T09:00:47;0.85;;;0.85;;
36989;SDS011;22898;52.102;5.776;2023-04-15T09:03:12;1.10;;;0.90;;
36989;SDS011;22898;52.102;5.776;2023-04-15T09:05:38;0.63;;;0.63;;
36989;SDS011;22898;52.102;5.776;2023-04-15T09:08:04;1.17;;;1.08;;
36989;SDS011;22898;52.102;5.776;2023-04-15T09:10:30;0.60;;;0.60;;
36989;SDS011;22898;52.102;5.776;2023-04-15T09:12:56;1.13;;;1.02;;
36989;SDS011;22898;52.102;5.776;2023-04-15T09:15:23;2.38;;;1.15;;
36989;SDS011;22898;52.102;5.776;2023-04-15T09:17:51;0.73;;;0.73;;
36989;SDS011;22898;52.102;5.776;2023-04-15T09:20:17;0.70;;;0.70;;
36989;SDS011;22898;52.102;5.776;2023-04-15T09:22:43;0.50;;;0.50;;
36989;SDS011;22898;52.102;5.776;2023-04-15T09:27:53;0.75;;;0.70;;
36989;SDS011;22898;52.102;5.776;2023-04-15T09:30:24;0.77;;;0.75;;
36989;SDS011;22898;52.102;5.776;2023-04-15T09:32:56;1.00;;;0.77;;
36989;SDS011;22898;52.102;5.776;2023-04-15T09:35:24;1.08;;;0.98;;
36989;SDS011;22898;52.102;5.776;2023-04-15T09:37:51;0.60;;;0.60;;
36989;SDS011;22898;52.102;5.776;2023-04-15T09:43:00;1.27;;;1.17;;
36989;SDS011;22898;52.102;5.776;2023-04-15T09:45:27;0.80;;;0.80;;
36989;SDS011;22898;52.102;5.776;2023-04-15T09:47:53;1.33;;;0.95;;
36989;SDS011;22898;52.102;5.776;2023-04-15T09:50:19;1.10;;;0.82;;
36989;SDS011;22898;52.102;5.776;2023-04-15T09:52:45;0.47;;;0.47;;
36989;SDS011;22898;52.102;5.776;2023-04-15T09:55:11;3.35;;;1.42;;
36989;SDS011;22898;52.102;5.776;2023-04-15T09:57:38;1.02;;;0.95;;
36989;SDS011;22898;52.102;5.776;2023-04-15T10:00:08;1.40;;;1.08;;
36989;SDS011;22898;52.102;5.776;2023-04-15T10:02:35;0.65;;;0.63;;
36989;SDS011;22898;52.102;5.776;2023-04-15T10:05:05;1.50;;;1.00;;
36989;SDS011;22898;52.102;5.776;2023-04-15T10:07:31;2.92;;;1.33;;
36989;SDS011;22898;52.102;5.776;2023-04-15T10:09:57;1.05;;;0.90;;
36989;SDS011;22898;52.102;5.776;2023-04-15T10:12:24;1.27;;;0.70;;
36989;SDS011;22898;52.102;5.776;2023-04-15T10:14:52;1.20;;;1.00;;
36989;SDS011;22898;52.102;5.776;2023-04-15T10:17:23;1.23;;;1.13;;
36989;SDS011;22898;52.102;5.776;2023-04-15T10:19:58;0.80;;;0.80;;
36989;SDS011;22898;52.102;5.776;2023-04-15T10:22:26;2.13;;;1.20;;
36989;SDS011;22898;52.102;5.776;2023-04-15T10:24:52;1.00;;;0.90;;
36989;SDS011;22898;52.102;5.776;2023-04-15T10:27:20;0.70;;;0.70;;
36989;SDS011;22898;52.102;5.776;2023-04-15T10:29:46;1.10;;;0.82;;
36989;SDS011;22898;52.102;5.776;2023-04-15T10:32:13;1.70;;;1.25;;
36989;SDS011;22898;52.102;5.776;2023-04-15T10:34:43;1.70;;;1.50;;
36989;SDS011;22898;52.102;5.776;2023-04-15T10:37:10;0.80;;;0.80;;
36989;SDS011;22898;52.102;5.776;2023-04-15T10:42:11;1.17;;;0.90;;
36989;SDS011;22898;52.102;5.776;2023-04-15T10:44:40;0.68;;;0.68;;
36989;SDS011;22898;52.102;5.776;2023-04-15T10:47:17;1.00;;;0.55;;
36989;SDS011;22898;52.102;5.776;2023-04-15T10:49:46;1.08;;;0.98;;
36989;SDS011;22898;52.102;5.776;2023-04-15T10:52:17;1.17;;;1.00;;
36989;SDS011;22898;52.102;5.776;2023-04-15T10:54:48;0.80;;;0.80;;
36989;SDS011;22898;52.102;5.776;2023-04-15T10:57:15;0.98;;;0.88;;
36989;SDS011;22898;52.102;5.776;2023-04-15T10:59:59;0.80;;;0.80;;
36989;SDS011;22898;52.102;5.776;2023-04-15T11:02:45;1.25;;;1.05;;
36989;SDS011;22898;52.102;5.776;2023-04-15T11:05:17;0.55;;;0.55;;
36989;SDS011;22898;52.102;5.776;2023-04-15T11:07:52;2.95;;;1.73;;
36989;SDS011;22898;52.102;5.776;2023-04-15T11:12:57;0.75;;;0.75;;
36989;SDS011;22898;52.102;5.776;2023-04-15T11:20:36;0.95;;;0.93;;
36989;SDS011;22898;52.102;5.776;2023-04-15T11:23:04;0.88;;;0.70;;
36989;SDS011;22898;52.102;5.776;2023-04-15T11:25:31;1.02;;;1.00;;
36989;SDS011;22898;52.102;5.776;2023-04-15T11:27:58;0.75;;;0.63;;
36989;SDS011;22898;52.102;5.776;2023-04-15T11:30:26;0.60;;;0.60;;
36989;SDS011;22898;52.102;5.776;2023-04-15T11:32:53;0.63;;;0.63;;
36989;SDS011;22898;52.102;5.776;2023-04-15T11:35:22;1.58;;;0.95;;
36989;SDS011;22898;52.102;5.776;2023-04-15T11:37:47;1.00;;;0.90;;
36989;SDS011;22898;52.102;5.776;2023-04-15T11:40:14;1.50;;;0.98;;
36989;SDS011;22898;52.102;5.776;2023-04-15T11:42:42;1.40;;;0.82;;
36989;SDS011;22898;52.102;5.776;2023-04-15T11:45:11;1.20;;;0.85;;
36989;SDS011;22898;52.102;5.776;2023-04-15T11:47:39;0.45;;;0.45;;
36989;SDS011;22898;52.102;5.776;2023-04-15T11:50:13;1.15;;;1.05;;
36989;SDS011;22898;52.102;5.776;2023-04-15T11:52:39;0.40;;;0.40;;
36989;SDS011;22898;52.102;5.776;2023-04-15T11:55:05;1.83;;;0.95;;
36989;SDS011;22898;52.102;5.776;2023-04-15T11:57:33;1.38;;;1.08;;
36989;SDS011;22898;52.102;5.776;2023-04-15T11:59:59;0.60;;;0.60;;
36989;SDS011;22898;52.102;5.776;2023-04-15T12:02:29;0.77;;;0.77;;
36989;SDS011;22898;52.102;5.776;2023-04-15T12:05:02;1.92;;;0.95;;
36989;SDS011;22898;52.102;5.776;2023-04-15T12:07:32;0.73;;;0.73;;
36989;SDS011;22898;52.102;5.776;2023-04-15T12:09:57;0.85;;;0.85;;
36989;SDS011;22898;52.102;5.776;2023-04-15T12:12:27;1.15;;;1.10;;
36989;SDS011;22898;52.102;5.776;2023-04-15T12:14:53;0.82;;;0.70;;
36989;SDS011;22898;52.102;5.776;2023-04-15T12:17:21;0.70;;;0.70;;
36989;SDS011;22898;52.102;5.776;2023-04-15T12:19:47;0.60;;;0.60;;
36989;SDS011;22898;52.102;5.776;2023-04-15T12:22:14;1.38;;;0.70;;
36989;SDS011;22898;52.102;5.776;2023-04-15T12:24:42;0.88;;;0.88;;
36989;SDS011;22898;52.102;5.776;2023-04-15T12:27:11;1.88;;;1.30;;
36989;SDS011;22898;52.102;5.776;2023-04-15T12:29:38;1.05;;;0.80;;
36989;SDS011;22898;52.102;5.776;2023-04-15T12:34:36;0.98;;;0.98;;
36989;SDS011;22898;52.102;5.776;2023-04-15T12:37:06;0.57;;;0.57;;
36989;SDS011;22898;52.102;5.776;2023-04-15T12:39:37;0.95;;;0.95;;
36989;SDS011;22898;52.102;5.776;2023-04-15T12:42:04;0.60;;;0.60;;
36989;SDS011;22898;52.102;5.776;2023-04-15T12:44:31;0.73;;;0.63;;
36989;SDS011;22898;52.102;5.776;2023-04-15T12:46:58;0.85;;;0.85;;
36989;SDS011;22898;52.102;5.776;2023-04-15T12:49:24;0.50;;;0.50;;
36989;SDS011;22898;52.102;5.776;2023-04-15T12:51:51;0.50;;;0.50;;
36989;SDS011;22898;52.102;5.776;2023-04-15T12:54:18;0.70;;;0.70;;
36989;SDS011;22898;52.102;5.776;2023-04-15T12:56:45;0.82;;;0.82;;
36989;SDS011;22898;52.102;5.776;2023-04-15T12:59:11;0.68;;;0.68;;
36989;SDS011;22898;52.102;5.776;2023-04-15T13:01:38;0.55;;;0.55;;
36989;SDS011;22898;52.102;5.776;2023-04-15T13:04:04;2.22;;;0.70;;
36989;SDS011;22898;52.102;5.776;2023-04-15T13:06:30;0.63;;;0.63;;
36989;SDS011;22898;52.102;5.776;2023-04-15T13:08:57;0.38;;;0.38;;
36989;SDS011;22898;52.102;5.776;2023-04-15T13:11:23;0.50;;;0.50;;
36989;SDS011;22898;52.102;5.776;2023-04-15T13:13:49;0.60;;;0.60;;
36989;SDS011;22898;52.102;5.776;2023-04-15T13:16:16;0.57;;;0.57;;
36989;SDS011;22898;52.102;5.776;2023-04-15T13:18:43;0.60;;;0.60;;
36989;SDS011;22898;52.102;5.776;2023-04-15T13:21:10;0.52;;;0.52;;
36989;SDS011;22898;52.102;5.776;2023-04-15T13:23:37;5.10;;;1.55;;
36989;SDS011;22898;52.102;5.776;2023-04-15T13:26:02;0.60;;;0.60;;
36989;SDS011;22898;52.102;5.776;2023-04-15T13:28:28;0.43;;;0.43;;
36989;SDS011;22898;52.102;5.776;2023-04-15T13:30:53;0.52;;;0.52;;
36989;SDS011;22898;52.102;5.776;2023-04-15T13:33:19;0.82;;;0.77;;
36989;SDS011;22898;52.102;5.776;2023-04-15T13:35:45;0.50;;;0.50;;
36989;SDS011;22898;52.102;5.776;2023-04-15T13:38:11;0.52;;;0.52;;
36989;SDS011;22898;52.102;5.776;2023-04-15T13:40:36;1.05;;;1.05;;
36989;SDS011;22898;52.102;5.776;2023-04-15T13:43:02;0.43;;;0.43;;
36989;SDS011;22898;52.102;5.776;2023-04-15T13:45:28;0.85;;;0.70;;
36989;SDS011;22898;52.102;5.776;2023-04-15T13:47:54;0.57;;;0.57;;
36989;SDS011;22898;52.102;5.776;2023-04-15T13:50:21;0.50;;;0.50;;
36989;SDS011;22898;52.102;5.776;2023-04-15T13:52:46;0.70;;;0.70;;
36989;SDS011;22898;52.102;5.776;2023-04-15T13:55:12;0.45;;;0.45;;
36989;SDS011;22898;52.102;5.776;2023-04-15T13:57:37;1.33;;;1.23;;
36989;SDS011;22898;52.102;5.776;2023-04-15T14:00:03;1.08;;;0.80;;
36989;SDS011;22898;52.102;5.776;2023-04-15T14:02:30;0.70;;;0.70;;
36989;SDS011;22898;52.102;5.776;2023-04-15T14:04:55;0.50;;;0.50;;
36989;SDS011;22898;52.102;5.776;2023-04-15T14:07:21;0.40;;;0.40;;
36989;SDS011;22898;52.102;5.776;2023-04-15T14:09:47;0.50;;;0.50;;
36989;SDS011;22898;52.102;5.776;2023-04-15T14:12:13;1.17;;;0.73;;
36989;SDS011;22898;52.102;5.776;2023-04-15T14:14:38;0.93;;;0.93;;
36989;SDS011;22898;52.102;5.776;2023-04-15T14:17:04;0.70;;;0.70;;
36989;SDS011;22898;52.102;5.776;2023-04-15T14:19:30;1.42;;;0.75;;
36989;SDS011;22898;52.102;5.776;2023-04-15T14:21:56;1.08;;;0.52;;
36989;SDS011;22898;52.102;5.776;2023-04-15T14:24:22;2.78;;;0.82;;
36989;SDS011;22898;52.102;5.776;2023-04-15T14:26:47;0.50;;;0.50;;
36989;SDS011;22898;52.102;5.776;2023-04-15T14:29:13;0.75;;;0.75;;
36989;SDS011;22898;52.102;5.776;2023-04-15T14:31:38;2.38;;;0.73;;
36989;SDS011;22898;52.102;5.776;2023-04-15T14:34:04;0.55;;;0.55;;
36989;SDS011;22898;52.102;5.776;2023-04-15T14:36:30;1.85;;;1.08;;
36989;SDS011;22898;52.102;5.776;2023-04-15T14:38:56;0.70;;;0.70;;
36989;SDS011;22898;52.102;5.776;2023-04-15T14:41:22;0.60;;;0.60;;
36989;SDS011;22898;52.102;5.776;2023-04-15T14:43:48;5.82;;;0.73;;
36989;SDS011;22898;52.102;5.776;2023-04-15T14:46:13;0.50;;;0.50;;
36989;SDS011;22898;52.102;5.776;2023-04-15T14:48:39;0.60;;;0.60;;
36989;SDS011;22898;52.102;5.776;2023-04-15T14:51:05;0.68;;;0.68;;
36989;SDS011;22898;52.102;5.776;2023-04-15T14:53:31;3.85;;;1.13;;
36989;SDS011;22898;52.102;5.776;2023-04-15T14:55:56;0.60;;;0.60;;
36989;SDS011;22898;52.102;5.776;2023-04-15T14:58:22;0.85;;;0.80;;
36989;SDS011;22898;52.102;5.776;2023-04-15T15:00:47;0.40;;;0.40;;